Time;durP1;ratioP1;P1;durP2;ratioP2;P2;SDS_P1;SDS_P2;PMS_P1;PMS_P2;Temp;Humidity;BMP_temperature;BMP_pressure;BME280_temperature;BME280_humidity;BME280_pressure;Samples;Min_cycle;Max_cycle;Signal;HPM_P1;HPM_P2
2022/11/09 00:00:34;;;;;;;;;;;;;;;12.16;68.87;97945.06;7396268;19;19918;-77
2022/11/09 00:03:01;;;;;;;;;;;;;;;12.15;68.92;97951.41;7392918;19;19926;-77
2022/11/09 00:05:27;;;;;;;;;;;;;;;12.25;68.75;97952.00;7395184;19;19915;-77
2022/11/09 00:07:54;;;;;;;;;;;;;;;12.29;68.62;97953.28;7393324;19;19946;-76
2022/11/09 00:10:23;;;;;;;;;;;;;;;12.22;68.71;97947.03;7392774;19;19934;-77
2022/11/09 00:12:50;;;;;;;;;;;;;;;12.18;68.86;97936.97;7391400;19;19919;-77
2022/11/09 00:15:17;;;;;;;;;;;;;;;12.18;68.65;97940.44;7393000;19;19919;-77
2022/11/09 00:17:43;;;;;;;;;;;;;;;12.21;69.01;97936.59;7394020;19;19922;-77
2022/11/09 00:20:10;;;;;;;;;;;;;;;12.19;68.35;97936.78;7389089;19;20588;-77
2022/11/09 00:22:36;;;;;;;;;;;;;;;12.21;68.31;97941.91;7390335;19;19926;-77
2022/11/09 00:25:03;;;;;;;;;;;;;;;12.21;68.42;97936.59;7394024;19;19943;-77
2022/11/09 00:27:30;;;;;;;;;;;;;;;12.21;68.52;97933.94;7391004;19;19986;-77
2022/11/09 00:29:56;;;;;;;;;;;;;;;12.24;68.50;97931.78;7391627;19;19966;-77
2022/11/09 00:32:23;;;;;;;;;;;;;;;12.24;68.71;97921.19;7391563;19;19927;-77
2022/11/09 00:34:53;;;;;;;;;;;;;;;12.27;68.84;97923.47;7395002;19;20327;-77
2022/11/09 00:37:19;;;;;;;;;;;;;;;12.34;68.71;97920.09;7395737;19;20559;-77
2022/11/09 00:39:46;;;;;;;;;;;;;;;12.36;68.77;97915.44;7395644;19;19929;-77
2022/11/09 00:42:13;;;;;;;;;;;;;;;12.46;67.75;97924.81;7393151;19;20295;-77
2022/11/09 00:44:39;;;;;;;;;;;;;;;12.44;67.90;97931.28;7390610;19;19941;-77
2022/11/09 00:47:07;;;;;;;;;;;;;;;12.40;68.62;97924.69;7391173;19;19914;-77
2022/11/09 00:49:33;;;;;;;;;;;;;;;12.44;67.80;97924.16;7390328;19;19926;-77
2022/11/09 00:52:00;;;;;;;;;;;;;;;12.39;68.06;97923.88;7392922;19;19923;-77
2022/11/09 00:54:27;;;;;;;;;;;;;;;12.44;68.18;97920.69;7395851;19;19910;-77
2022/11/09 00:56:53;;;;;;;;;;;;;;;12.41;68.38;97918.41;7392348;19;19946;-77
2022/11/09 00:59:20;;;;;;;;;;;;;;;12.37;68.50;97922.38;7391514;19;19915;-77
2022/11/09 01:01:47;;;;;;;;;;;;;;;12.37;68.61;97914.44;7391105;19;19962;-76
2022/11/09 01:04:13;;;;;;;;;;;;;;;12.33;68.79;97916.63;7391589;19;19923;-77
2022/11/09 01:06:40;;;;;;;;;;;;;;;12.35;68.55;97913.78;7392922;19;19923;-77
2022/11/09 01:09:08;;;;;;;;;;;;;;;12.39;68.61;97909.78;7390820;19;19926;-76
2022/11/09 01:11:36;;;;;;;;;;;;;;;12.35;68.64;97921.75;7392196;19;19923;-77
2022/11/09 01:14:02;;;;;;;;;;;;;;;12.23;68.37;97911.56;7390145;19;19967;-76
2022/11/09 01:16:29;;;;;;;;;;;;;;;12.23;68.86;97914.22;7389833;19;19930;-77
2022/11/09 01:18:56;;;;;;;;;;;;;;;12.24;68.69;97929.13;7389937;19;20346;-77
2022/11/09 01:21:23;;;;;;;;;;;;;;;12.20;68.64;97917.22;7390400;19;19911;-77
2022/11/09 01:23:50;;;;;;;;;;;;;;;12.18;68.89;97919.22;7388979;19;20382;-77
2022/11/09 01:26:17;;;;;;;;;;;;;;;12.17;69.20;97916.75;7393794;19;19926;-77
2022/11/09 01:28:43;;;;;;;;;;;;;;;12.18;68.72;97921.03;7390438;19;19940;-77
2022/11/09 01:31:11;;;;;;;;;;;;;;;12.16;68.77;97926.50;7393133;19;19946;-77
2022/11/09 01:33:38;;;;;;;;;;;;;;;12.06;69.04;97925.94;7388770;19;19929;-77
2022/11/09 01:36:06;;;;;;;;;;;;;;;12.14;68.85;97925.91;7389389;19;21584;-76
2022/11/09 01:38:32;;;;;;;;;;;;;;;12.12;68.59;97924.41;7391444;19;20243;-77
2022/11/09 01:40:59;;;;;;;;;;;;;;;12.12;69.17;97925.25;7391542;19;19929;-76
2022/11/09 01:43:26;;;;;;;;;;;;;;;12.04;69.17;97923.47;7390417;19;19919;-77
2022/11/09 01:45:56;;;;;;;;;;;;;;;12.11;69.09;97922.75;7390101;19;19947;-77
2022/11/09 01:48:34;;;;;;;;;;;;;;;12.00;69.60;97922.16;7391261;19;20338;-77
2022/11/09 01:51:03;;;;;;;;;;;;;;;12.08;69.50;97913.31;7390343;19;19930;-77
2022/11/09 01:53:32;;;;;;;;;;;;;;;12.07;69.29;97915.16;7384766;19;19926;-77
2022/11/09 01:56:00;;;;;;;;;;;;;;;12.00;69.62;97910.72;7389875;19;19944;-77
2022/11/09 01:58:31;;;;;;;;;;;;;;;12.01;69.76;97913.22;7390178;19;20995;-77
2022/11/09 02:00:58;;;;;;;;;;;;;;;11.95;70.01;97911.25;7387479;19;19919;-76
2022/11/09 02:03:30;;;;;;;;;;;;;;;11.97;70.40;97905.78;7388791;19;20254;-77
2022/11/09 02:05:58;;;;;;;;;;;;;;;12.01;69.70;97907.09;7388973;19;20018;-77
2022/11/09 02:08:26;;;;;;;;;;;;;;;11.99;70.04;97909.09;7387554;19;19923;-77
2022/11/09 02:11:09;;;;;;;;;;;;;;;12.07;69.29;97914.34;7390980;19;19923;-76
2022/11/09 02:13:41;;;;;;;;;;;;;;;12.20;69.43;97911.91;7388044;19;19922;-77
2022/11/09 02:16:08;;;;;;;;;;;;;;;12.34;68.62;97915.63;7390005;19;19918;-77
2022/11/09 02:18:35;;;;;;;;;;;;;;;12.49;68.41;97920.97;7389377;19;19922;-77
2022/11/09 02:21:02;;;;;;;;;;;;;;;12.52;67.98;97920.63;7388932;19;20307;-77
2022/11/09 02:23:28;;;;;;;;;;;;;;;12.58;67.31;97919.06;7384181;19;19927;-77
2022/11/09 02:25:57;;;;;;;;;;;;;;;12.53;67.47;97940.81;7387969;19;19911;-77
2022/11/09 02:28:25;;;;;;;;;;;;;;;12.62;66.83;97945.06;7387186;19;19939;-77
2022/11/09 02:30:52;;;;;;;;;;;;;;;12.33;67.82;97948.47;7388282;19;20679;-77
2022/11/09 02:33:19;;;;;;;;;;;;;;;12.21;68.41;97944.56;7387260;19;20334;-76
2022/11/09 02:35:47;;;;;;;;;;;;;;;12.29;68.66;97939.19;7391253;19;20023;-77
2022/11/09 02:38:13;;;;;;;;;;;;;;;12.35;69.03;97937.66;7389290;19;19923;-76
2022/11/09 02:40:42;;;;;;;;;;;;;;;12.22;68.92;97940.91;7387110;19;19986;-77
2022/11/09 02:43:09;;;;;;;;;;;;;;;12.32;69.08;97930.06;7384466;19;19940;-77
2022/11/09 02:45:35;;;;;;;;;;;;;;;12.45;68.59;97939.09;7386590;19;20297;-77
2022/11/09 02:48:02;;;;;;;;;;;;;;;12.53;68.55;97956.75;7391523;19;20400;-76
2022/11/09 02:50:29;;;;;;;;;;;;;;;12.55;67.34;97957.41;7389330;19;19946;-77
2022/11/09 02:52:55;;;;;;;;;;;;;;;12.66;67.28;97964.09;7388709;19;19923;-77
2022/11/09 02:55:22;;;;;;;;;;;;;;;12.70;67.64;97966.22;7388095;19;20331;-76
2022/11/09 02:57:49;;;;;;;;;;;;;;;12.83;66.74;97970.94;7389503;19;19925;-77
2022/11/09 03:00:15;;;;;;;;;;;;;;;12.85;66.91;97974.25;7386658;19;19926;-77
2022/11/09 03:02:42;;;;;;;;;;;;;;;12.82;66.54;97968.44;7386797;19;19926;-77
2022/11/09 03:05:10;;;;;;;;;;;;;;;12.77;67.05;97965.50;7388543;19;19978;-76
2022/11/09 03:07:40;;;;;;;;;;;;;;;13.02;64.25;97968.78;7388164;19;19923;-77
2022/11/09 03:10:06;;;;;;;;;;;;;;;13.13;63.81;97955.84;7387218;19;19919;-76
2022/11/09 03:12:33;;;;;;;;;;;;;;;13.16;63.49;97965.28;7394338;19;19918;-77
2022/11/09 03:15:12;;;;;;;;;;;;;;;13.29;63.15;97970.81;7392134;19;19917;-77
2022/11/09 03:17:42;;;;;;;;;;;;;;;13.33;63.68;97973.97;7394243;19;20362;-76
2022/11/09 03:20:09;;;;;;;;;;;;;;;13.28;64.41;97979.00;7394848;19;20245;-77
2022/11/09 03:22:37;;;;;;;;;;;;;;;13.20;66.09;97987.03;7393444;19;19982;-77
2022/11/09 03:25:04;;;;;;;;;;;;;;;12.91;67.74;97978.00;7392325;19;19941;-77
2022/11/09 03:27:31;;;;;;;;;;;;;;;12.90;70.13;97986.94;7396640;19;19953;-76
2022/11/09 03:29:58;;;;;;;;;;;;;;;12.87;71.78;97982.81;7392809;19;19918;-77
2022/11/09 03:32:25;;;;;;;;;;;;;;;12.85;71.83;97981.34;7394197;19;20715;-76
2022/11/09 03:34:52;;;;;;;;;;;;;;;12.71;73.94;97983.78;7398616;19;19914;-78
2022/11/09 03:37:18;;;;;;;;;;;;;;;12.59;74.40;97982.59;7401291;19;19919;-78
2022/11/09 03:39:45;;;;;;;;;;;;;;;12.52;75.05;97987.75;7403609;19;20287;-77
2022/11/09 03:42:12;;;;;;;;;;;;;;;12.38;75.59;97990.38;7401924;19;20327;-78
2022/11/09 03:44:39;;;;;;;;;;;;;;;12.30;75.34;97991.25;7400988;19;19915;-78
2022/11/09 03:47:05;;;;;;;;;;;;;;;12.15;75.95;97996.47;7402257;19;19947;-78
2022/11/09 03:49:32;;;;;;;;;;;;;;;12.11;75.84;98005.78;7398972;19;19919;-78
2022/11/09 03:51:58;;;;;;;;;;;;;;;12.06;75.78;98016.91;7399223;19;20390;-78
2022/11/09 03:54:25;;;;;;;;;;;;;;;12.02;76.00;98018.25;7399982;19;19919;-78
2022/11/09 03:56:51;;;;;;;;;;;;;;;12.06;75.79;98018.75;7399780;19;19943;-78
2022/11/09 03:59:18;;;;;;;;;;;;;;;11.90;76.70;98017.00;7395768;19;19922;-77
2022/11/09 04:01:45;;;;;;;;;;;;;;;11.79;77.22;98009.38;7390666;19;19919;-77
2022/11/09 04:04:11;;;;;;;;;;;;;;;11.93;76.60;98010.50;7391869;19;19986;-78
2022/11/09 04:06:38;;;;;;;;;;;;;;;11.77;77.61;98000.78;7392016;19;19918;-77
2022/11/09 04:09:05;;;;;;;;;;;;;;;11.82;77.12;98001.94;7393554;19;19923;-78
2022/11/09 04:11:31;;;;;;;;;;;;;;;11.74;78.04;98003.78;7394238;19;20364;-78
2022/11/09 04:13:58;;;;;;;;;;;;;;;11.70;78.32;98005.94;7393417;19;19928;-78
2022/11/09 04:16:25;;;;;;;;;;;;;;;11.67;78.53;98003.66;7395175;19;19918;-78
2022/11/09 04:18:51;;;;;;;;;;;;;;;11.69;78.66;98001.66;7394526;19;19938;-78
2022/11/09 04:21:18;;;;;;;;;;;;;;;11.71;78.33;98004.94;7391945;19;19914;-78
2022/11/09 04:23:49;;;;;;;;;;;;;;;11.63;78.82;98008.44;7389523;19;20364;-78
2022/11/09 04:26:16;;;;;;;;;;;;;;;11.66;78.66;98009.94;7395297;19;19918;-78
2022/11/09 04:28:42;;;;;;;;;;;;;;;11.75;78.29;98016.03;7391574;19;19918;-78
2022/11/09 04:31:09;;;;;;;;;;;;;;;11.84;78.05;98017.66;7392508;19;19918;-78
2022/11/09 04:33:35;;;;;;;;;;;;;;;11.76;78.51;98012.38;7390296;19;19930;-78
2022/11/09 04:36:03;;;;;;;;;;;;;;;11.78;78.02;98023.66;7392421;19;19910;-78
2022/11/09 04:38:30;;;;;;;;;;;;;;;11.87;77.94;98027.94;7392480;19;19923;-78
2022/11/09 04:41:00;;;;;;;;;;;;;;;11.93;77.69;98037.00;7393368;19;19923;-78
2022/11/09 04:43:27;;;;;;;;;;;;;;;11.89;77.75;98031.25;7392651;19;19951;-79
2022/11/09 04:45:53;;;;;;;;;;;;;;;11.82;78.09;98031.09;7403260;19;19923;-79
2022/11/09 04:48:20;;;;;;;;;;;;;;;11.75;78.57;98031.94;7403735;19;19947;-79
2022/11/09 04:50:47;;;;;;;;;;;;;;;11.74;78.53;98025.81;7400331;19;19918;-78
2022/11/09 04:53:16;;;;;;;;;;;;;;;11.67;78.59;98021.38;7396393;19;19927;-78
2022/11/09 04:55:43;;;;;;;;;;;;;;;11.65;78.62;98024.19;7390922;19;19923;-78
2022/11/09 04:58:09;;;;;;;;;;;;;;;11.58;78.97;98023.19;7393398;19;19943;-78
2022/11/09 05:00:36;;;;;;;;;;;;;;;11.50;79.20;98016.09;7391835;19;19923;-78
2022/11/09 05:03:03;;;;;;;;;;;;;;;11.46;79.70;98009.50;7389617;19;19922;-78
2022/11/09 05:05:31;;;;;;;;;;;;;;;11.48;79.58;98007.53;7389692;19;19923;-78
2022/11/09 05:07:57;;;;;;;;;;;;;;;11.36;79.94;97999.09;7393622;19;19953;-78
2022/11/09 05:10:24;;;;;;;;;;;;;;;11.42;80.02;97997.59;7391302;19;19955;-78
2022/11/09 05:12:55;;;;;;;;;;;;;;;11.43;79.91;98005.38;7388008;19;19922;-77
2022/11/09 05:15:22;;;;;;;;;;;;;;;11.50;79.71;98004.69;7385204;19;19939;-77
2022/11/09 05:17:49;;;;;;;;;;;;;;;11.54;79.68;97998.06;7392464;19;19919;-78
2022/11/09 05:20:15;;;;;;;;;;;;;;;11.55;79.79;97999.72;7390301;19;19923;-77
2022/11/09 05:25:27;;;;;;;;;;;;;;;11.62;80.06;98014.75;7391917;19;19922;-77
2022/11/09 05:27:54;;;;;;;;;;;;;;;11.65;79.96;98008.28;7388130;19;20363;-77
2022/11/09 05:30:21;;;;;;;;;;;;;;;11.69;79.72;98004.31;7390046;19;19929;-78
2022/11/09 05:32:47;;;;;;;;;;;;;;;11.78;79.90;98005.91;7388919;19;19919;-77
2022/11/09 05:35:14;;;;;;;;;;;;;;;11.74;79.84;98001.97;7387579;19;19933;-77
2022/11/09 05:37:41;;;;;;;;;;;;;;;11.84;79.69;97999.09;7393168;19;19923;-77
2022/11/09 05:40:08;;;;;;;;;;;;;;;11.86;79.57;97994.47;7390086;19;19923;-77
2022/11/09 05:42:38;;;;;;;;;;;;;;;11.73;79.81;97987.06;7387338;19;19923;-77
2022/11/09 05:45:06;;;;;;;;;;;;;;;11.69;80.11;97980.47;7383873;19;19945;-77
2022/11/09 05:47:53;;;;;;;;;;;;;;;11.77;79.93;97987.53;7388496;19;19922;-77
2022/11/09 05:50:19;;;;;;;;;;;;;;;11.82;79.81;97983.38;7387650;19;19947;-77
2022/11/09 05:52:51;;;;;;;;;;;;;;;11.85;79.90;97990.16;7386956;19;19943;-77
2022/11/09 05:55:18;;;;;;;;;;;;;;;11.88;79.85;97987.19;7391581;19;19927;-77
2022/11/09 05:57:44;;;;;;;;;;;;;;;11.85;79.90;97990.16;7386700;19;20347;-77
2022/11/09 06:00:11;;;;;;;;;;;;;;;11.92;79.88;97987.66;7385566;19;19926;-76
2022/11/09 06:02:38;;;;;;;;;;;;;;;11.92;79.90;97987.66;7381660;19;20019;-76
2022/11/09 06:05:05;;;;;;;;;;;;;;;11.89;80.26;97985.34;7383742;19;19943;-75
2022/11/09 06:07:31;;;;;;;;;;;;;;;11.90;80.19;97997.59;7382460;19;19926;-75
2022/11/09 06:09:58;;;;;;;;;;;;;;;11.90;80.20;97990.50;7385596;19;19994;-76
2022/11/09 06:12:25;;;;;;;;;;;;;;;11.85;80.46;97983.03;7380843;19;19915;-75
2022/11/09 06:14:51;;;;;;;;;;;;;;;11.89;80.24;97986.19;7381570;19;20266;-75
2022/11/09 06:17:18;;;;;;;;;;;;;;;11.94;80.24;97990.97;7377705;19;19976;-75
2022/11/09 06:19:44;;;;;;;;;;;;;;;11.94;80.25;97990.97;7376249;19;20603;-75
2022/11/09 06:22:11;;;;;;;;;;;;;;;11.95;80.38;98001.38;7378896;19;20418;-75
2022/11/09 06:24:37;;;;;;;;;;;;;;;11.96;80.14;98008.34;7378185;19;19919;-75
2022/11/09 06:27:05;;;;;;;;;;;;;;;12.01;80.24;98015.78;7379059;19;19922;-75
2022/11/09 06:29:31;;;;;;;;;;;;;;;12.01;80.00;98013.97;7380772;19;19915;-75
2022/11/09 06:31:58;;;;;;;;;;;;;;;12.10;79.85;98022.69;7377908;19;20262;-75
2022/11/09 06:34:25;;;;;;;;;;;;;;;12.19;79.44;98019.00;7376895;19;19915;-75
2022/11/09 06:36:51;;;;;;;;;;;;;;;12.01;79.71;98023.75;7379003;19;19923;-75
2022/11/09 06:39:18;;;;;;;;;;;;;;;12.02;79.77;98022.72;7386876;19;19922;-75
2022/11/09 06:41:44;;;;;;;;;;;;;;;12.14;79.41;98039.91;7388648;19;19922;-75
2022/11/09 06:44:13;;;;;;;;;;;;;;;12.07;79.44;98033.66;7384347;19;19935;-75
2022/11/09 06:46:40;;;;;;;;;;;;;;;11.97;79.77;98033.84;7385941;19;19923;-75
2022/11/09 06:49:07;;;;;;;;;;;;;;;12.00;79.98;98045.94;7389896;19;19948;-75
2022/11/09 06:51:33;;;;;;;;;;;;;;;12.10;79.90;98028.00;7384543;19;19944;-75
2022/11/09 06:54:00;;;;;;;;;;;;;;;12.15;79.89;98030.13;7382730;19;20386;-75
2022/11/09 06:56:26;;;;;;;;;;;;;;;12.17;79.74;98028.97;7387522;19;20292;-75
2022/11/09 06:58:53;;;;;;;;;;;;;;;12.08;79.73;98032.63;7384088;19;20338;-75
2022/11/09 07:01:20;;;;;;;;;;;;;;;12.21;79.60;98046.16;7385558;19;20372;-75
2022/11/09 07:03:47;;;;;;;;;;;;;;;12.23;79.37;98041.50;7384691;19;19933;-75
2022/11/09 07:06:14;;;;;;;;;;;;;;;12.26;78.90;98049.13;7386428;19;20384;-75
2022/11/09 07:08:40;;;;;;;;;;;;;;;12.22;78.89;98052.31;7384879;19;20270;-75
2022/11/09 07:11:08;;;;;;;;;;;;;;;12.24;78.74;98060.91;7384806;19;20292;-75
2022/11/09 07:13:35;;;;;;;;;;;;;;;12.32;78.58;98052.88;7382434;19;19948;-75
2022/11/09 07:16:02;;;;;;;;;;;;;;;12.30;78.77;98061.03;7388302;19;19922;-75
2022/11/09 07:18:28;;;;;;;;;;;;;;;12.40;78.56;98066.13;7388934;19;19919;-76
2022/11/09 07:20:55;;;;;;;;;;;;;;;12.37;78.93;98068.28;7386019;19;19929;-75
2022/11/09 07:23:21;;;;;;;;;;;;;;;12.16;79.28;98117.44;7382078;19;19947;-75
2022/11/09 07:25:48;;;;;;;;;;;;;;;11.65;81.22;98149.53;7383619;19;19918;-77
2022/11/09 07:28:15;;;;;;;;;;;;;;;11.67;81.58;98120.25;7385921;19;20280;-76
2022/11/09 07:30:42;;;;;;;;;;;;;;;11.79;81.05;98144.53;7385456;19;19931;-76
2022/11/09 07:33:13;;;;;;;;;;;;;;;12.06;80.20;98132.75;7383535;19;19951;-77
2022/11/09 07:35:39;;;;;;;;;;;;;;;12.20;80.08;98124.06;7384336;19;19918;-76
2022/11/09 07:38:06;;;;;;;;;;;;;;;12.26;80.26;98128.69;7385777;19;19923;-78
2022/11/09 07:40:33;;;;;;;;;;;;;;;12.43;80.19;98120.69;7383407;19;19923;-76
2022/11/09 07:43:00;;;;;;;;;;;;;;;12.58;79.72;98115.44;7382957;19;19919;-76
2022/11/09 07:45:28;;;;;;;;;;;;;;;12.61;79.67;98112.44;7382567;19;20327;-76
2022/11/09 07:47:55;;;;;;;;;;;;;;;12.61;79.54;98110.63;7386868;19;20397;-77
2022/11/09 07:50:22;;;;;;;;;;;;;;;12.64;79.51;98114.75;7384654;19;19939;-76
2022/11/09 07:52:48;;;;;;;;;;;;;;;12.70;79.31;98109.56;7382254;19;19919;-76
2022/11/09 07:55:15;;;;;;;;;;;;;;;12.60;79.45;98114.25;7385463;19;19939;-76
2022/11/09 07:57:43;;;;;;;;;;;;;;;12.71;79.21;98115.69;7384581;19;19918;-76
2022/11/09 08:00:10;;;;;;;;;;;;;;;12.68;79.34;98124.00;7391027;19;19922;-76
2022/11/09 08:02:39;;;;;;;;;;;;;;;12.58;79.86;98116.25;7388285;19;19911;-76
2022/11/09 08:05:06;;;;;;;;;;;;;;;12.50;79.94;98111.00;7393155;19;20633;-77
2022/11/09 08:07:33;;;;;;;;;;;;;;;12.63;79.92;98110.44;7393440;19;19923;-76
2022/11/09 08:09:59;;;;;;;;;;;;;;;12.50;80.45;98111.00;7393828;19;19951;-77
2022/11/09 08:12:26;;;;;;;;;;;;;;;12.69;80.02;98110.56;7392740;19;19923;-77
2022/11/09 08:14:54;;;;;;;;;;;;;;;12.76;79.95;98115.16;7388786;19;19923;-76
2022/11/09 08:17:21;;;;;;;;;;;;;;;12.84;79.51;98117.75;7386073;19;19915;-76
2022/11/09 08:19:47;;;;;;;;;;;;;;;12.94;79.51;98123.66;7392132;19;19919;-77
2022/11/09 08:22:14;;;;;;;;;;;;;;;12.92;79.33;98118.53;7388201;19;19947;-76
2022/11/09 08:24:41;;;;;;;;;;;;;;;12.91;79.30;98113.41;7386179;19;19918;-76
2022/11/09 08:27:07;;;;;;;;;;;;;;;12.76;79.51;98101.91;7391876;19;19955;-76
2022/11/09 08:29:34;;;;;;;;;;;;;;;12.74;79.90;98110.03;7392268;19;19918;-76
2022/11/09 08:32:00;;;;;;;;;;;;;;;12.73;80.34;98106.53;7388047;19;19914;-77
2022/11/09 08:34:27;;;;;;;;;;;;;;;12.89;79.57;98118.88;7384439;19;20022;-76
2022/11/09 08:36:54;;;;;;;;;;;;;;;12.93;79.53;98120.19;7389070;19;19971;-77
2022/11/09 08:39:22;;;;;;;;;;;;;;;12.99;79.29;98123.16;7392585;19;19948;-76
2022/11/09 08:41:48;;;;;;;;;;;;;;;12.80;79.65;98113.81;7390991;19;20612;-77
2022/11/09 08:44:15;;;;;;;;;;;;;;;12.77;79.92;98104.38;7392362;19;19918;-77
2022/11/09 08:46:41;;;;;;;;;;;;;;;12.79;80.23;98112.97;7392588;19;20248;-77
2022/11/09 08:49:08;;;;;;;;;;;;;;;12.72;80.20;98110.22;7388748;19;19926;-77
2022/11/09 08:51:35;;;;;;;;;;;;;;;12.71;80.53;98118.34;7387513;19;19935;-77
2022/11/09 08:54:01;;;;;;;;;;;;;;;12.94;80.30;98118.34;7390350;19;20595;-76
2022/11/09 08:56:28;;;;;;;;;;;;;;;13.06;79.83;98119.59;7393307;19;20330;-77
2022/11/09 08:58:55;;;;;;;;;;;;;;;13.04;79.84;98115.47;7392968;19;19947;-77
2022/11/09 09:01:21;;;;;;;;;;;;;;;13.03;80.13;98116.47;7390747;19;20346;-77
2022/11/09 09:03:48;;;;;;;;;;;;;;;13.10;80.03;98120.88;7389049;19;19919;-77
2022/11/09 09:06:14;;;;;;;;;;;;;;;13.23;80.02;98120.28;7387933;19;19918;-77
2022/11/09 09:08:41;;;;;;;;;;;;;;;13.30;80.34;98123.09;7389104;19;19915;-77
2022/11/09 09:11:08;;;;;;;;;;;;;;;13.50;79.80;98116.25;7391878;19;19952;-77
2022/11/09 09:13:34;;;;;;;;;;;;;;;13.56;80.01;98104.06;7387119;19;19921;-77
2022/11/09 09:16:09;;;;;;;;;;;;;;;13.55;80.02;98099.78;7390957;19;19929;-77
2022/11/09 09:18:36;;;;;;;;;;;;;;;13.42;80.24;98100.38;7388182;19;19931;-77
2022/11/09 09:21:06;;;;;;;;;;;;;;;13.47;80.00;98108.66;7388860;19;19914;-77
2022/11/09 09:23:33;;;;;;;;;;;;;;;13.56;79.75;98120.88;7384485;19;19982;-77
2022/11/09 09:26:00;;;;;;;;;;;;;;;13.71;79.43;98122.72;7386567;19;19919;-76
2022/11/09 09:28:26;;;;;;;;;;;;;;;13.72;79.72;98114.56;7391085;19;19980;-77
2022/11/09 09:30:53;;;;;;;;;;;;;;;13.78;79.62;98118.31;7389744;19;19926;-77
2022/11/09 09:33:20;;;;;;;;;;;;;;;13.71;79.92;98120.88;7385860;19;20303;-77
2022/11/09 09:35:47;;;;;;;;;;;;;;;13.82;79.84;98138.19;7389670;19;20614;-77
2022/11/09 09:38:13;;;;;;;;;;;;;;;13.88;79.33;98128.69;7389306;19;19944;-76
2022/11/09 09:40:42;;;;;;;;;;;;;;;13.98;79.28;98139.88;7387706;19;19943;-76
2022/11/09 09:43:19;;;;;;;;;;;;;;;13.79;79.68;98143.88;7384678;19;19931;-76
2022/11/09 09:45:47;;;;;;;;;;;;;;;13.82;79.80;98144.38;7385779;19;19949;-77
2022/11/09 09:48:17;;;;;;;;;;;;;;;13.87;79.84;98140.31;7387002;19;19943;-76
2022/11/09 09:50:45;;;;;;;;;;;;;;;13.86;79.89;98136.03;7389694;19;19930;-77
2022/11/09 09:53:31;;;;;;;;;;;;;;;13.63;80.64;98136.09;7384535;19;20864;-78
2022/11/09 09:56:06;;;;;;;;;;;;;;;13.86;80.39;98144.81;7385760;19;20589;-76
2022/11/09 09:58:33;;;;;;;;;;;;;;;13.76;80.47;98141.59;7384505;19;20005;-77
2022/11/09 10:01:10;;;;;;;;;;;;;;;13.62;80.60;98132.59;7388201;19;19930;-77
2022/11/09 10:03:37;;;;;;;;;;;;;;;13.62;80.58;98132.59;7386890;19;19994;-77
2022/11/09 10:06:16;;;;;;;;;;;;;;;13.75;80.72;98137.31;7388647;19;19923;-76
2022/11/09 10:08:48;;;;;;;;;;;;;;;13.90;80.95;98132.81;7390238;19;19954;-76
2022/11/09 10:11:14;;;;;;;;;;;;;;;13.91;80.01;98133.66;7384631;19;20300;-77
2022/11/09 10:13:41;;;;;;;;;;;;;;;14.00;79.76;98128.03;7382604;19;20284;-76
2022/11/09 10:16:22;;;;;;;;;;;;;;;13.84;79.82;98137.00;7385204;19;20278;-76
2022/11/09 10:18:49;;;;;;;;;;;;;;;13.82;80.04;98140.88;7386988;19;19951;-76
2022/11/09 10:21:34;;;;;;;;;;;;;;;13.81;80.10;98133.91;7385964;19;19963;-76
2022/11/09 10:24:00;;;;;;;;;;;;;;;13.95;79.84;98130.41;7385922;19;19922;-76
2022/11/09 10:26:27;;;;;;;;;;;;;;;13.92;79.68;98130.78;7387050;19;20266;-76
2022/11/09 10:28:55;;;;;;;;;;;;;;;14.00;79.92;98133.34;7386358;19;19919;-76
2022/11/09 10:31:41;;;;;;;;;;;;;;;14.04;79.66;98129.34;7383752;19;19921;-76
2022/11/09 10:34:15;;;;;;;;;;;;;;;14.06;79.59;98126.50;7386192;19;19939;-76
2022/11/09 10:36:44;;;;;;;;;;;;;;;14.13;79.35;98127.41;7386375;19;19943;-76
2022/11/09 10:39:11;;;;;;;;;;;;;;;14.28;79.13;98122.88;7387602;19;19953;-76
2022/11/09 10:41:56;;;;;;;;;;;;;;;14.33;78.93;98119.69;7386534;19;19937;-76
2022/11/09 10:44:41;;;;;;;;;;;;;;;14.44;78.35;98115.72;7386405;19;19949;-76
2022/11/09 10:47:26;;;;;;;;;;;;;;;14.59;78.28;98121.88;7385204;19;19945;-76
2022/11/09 10:50:20;;;;;;;;;;;;;;;14.60;78.35;98109.38;7382630;19;20834;-77
2022/11/09 10:53:14;;;;;;;;;;;;;;;14.48;78.59;98101.84;7386707;19;20004;-76
2022/11/09 10:56:10;;;;;;;;;;;;;;;14.48;77.96;98098.34;7388158;19;19930;-76
2022/11/09 10:58:55;;;;;;;;;;;;;;;14.53;78.19;98103.97;7386399;19;19926;-76
2022/11/09 11:01:40;;;;;;;;;;;;;;;14.62;77.36;98096.72;7390835;19;19926;-76
2022/11/09 11:04:26;;;;;;;;;;;;;;;14.78;77.92;98085.81;7390218;19;20369;-76
2022/11/09 11:07:18;;;;;;;;;;;;;;;15.10;77.54;98086.31;7387922;19;20272;-77
2022/11/09 11:10:14;;;;;;;;;;;;;;;15.07;77.04;98087.50;7386658;19;20507;-76
2022/11/09 11:13:00;;;;;;;;;;;;;;;14.92;76.44;98079.59;7384682;19;20013;-77
2022/11/09 11:15:45;;;;;;;;;;;;;;;15.00;76.77;98083.16;7384634;19;19949;-76
2022/11/09 11:18:30;;;;;;;;;;;;;;;15.09;76.95;98077.50;7383661;19;19941;-76
2022/11/09 11:21:16;;;;;;;;;;;;;;;15.23;77.30;98078.44;7383007;19;19926;-76
2022/11/09 11:24:13;;;;;;;;;;;;;;;15.37;77.26;98074.84;7384547;19;20358;-76
2022/11/09 11:26:58;;;;;;;;;;;;;;;15.36;76.31;98075.88;7386030;19;19933;-76
2022/11/09 11:29:47;;;;;;;;;;;;;;;15.52;76.50;98074.75;7387245;19;19958;-77
2022/11/09 11:32:32;;;;;;;;;;;;;;;15.51;75.92;98066.97;7384665;19;19926;-76
2022/11/09 11:35:20;;;;;;;;;;;;;;;15.58;75.50;98067.81;7392625;19;19953;-77
2022/11/09 11:38:14;;;;;;;;;;;;;;;15.49;75.28;98061.81;7393239;19;19953;-76
2022/11/09 11:41:01;;;;;;;;;;;;;;;15.50;76.02;98066.13;7394092;19;20433;-76
2022/11/09 11:43:54;;;;;;;;;;;;;;;15.46;76.16;98061.38;7391908;19;19926;-76
2022/11/09 11:46:39;;;;;;;;;;;;;;;15.48;75.80;98067.31;7393263;19;19942;-76
2022/11/09 11:49:37;;;;;;;;;;;;;;;15.44;75.99;98060.75;7394953;19;19929;-76
2022/11/09 11:52:34;;;;;;;;;;;;;;;15.45;75.59;98057.88;7392356;19;19921;-76
2022/11/09 11:55:19;;;;;;;;;;;;;;;15.35;75.58;98055.56;7392468;19;19926;-76
2022/11/09 11:58:10;;;;;;;;;;;;;;;15.46;75.57;98061.38;7396254;19;20627;-76
2022/11/09 12:01:01;;;;;;;;;;;;;;;15.47;76.12;98057.69;7396393;19;19953;-76
2022/11/09 12:03:49;;;;;;;;;;;;;;;15.43;76.03;98056.41;7390395;19;19965;-76
2022/11/09 12:06:34;;;;;;;;;;;;;;;15.69;75.02;98056.66;7391735;19;19927;-77
2022/11/09 12:09:43;;;;;;;;;;;;;;;15.64;75.70;98060.88;7388123;19;19917;-76
2022/11/09 12:12:47;;;;;;;;;;;;;;;15.86;75.43;98051.00;7386339;19;19918;-77
2022/11/09 12:15:32;;;;;;;;;;;;;;;15.96;75.31;98049.59;7391330;19;19926;-76
2022/11/09 12:18:29;;;;;;;;;;;;;;;16.05;75.52;98052.91;7390108;19;19976;-76
2022/11/09 12:21:15;;;;;;;;;;;;;;;16.09;75.40;98045.34;7394013;19;19933;-76
2022/11/09 12:24:04;;;;;;;;;;;;;;;16.15;75.46;98052.56;7386059;19;19938;-76
2022/11/09 12:27:18;;;;;;;;;;;;;;;16.14;75.51;98035.72;7386762;19;19953;-76
2022/11/09 12:30:20;;;;;;;;;;;;;;;16.10;75.46;98031.81;7389000;19;19918;-76
2022/11/09 12:33:18;;;;;;;;;;;;;;;16.07;75.35;98029.53;7383162;19;19925;-76
2022/11/09 12:36:08;;;;;;;;;;;;;;;16.01;75.45;98025.81;7381976;19;20012;-76
2022/11/09 12:38:53;;;;;;;;;;;;;;;16.05;75.39;98030.75;7387852;19;19936;-77
2022/11/09 12:41:38;;;;;;;;;;;;;;;16.11;75.13;98017.41;7388682;19;20039;-76
2022/11/09 12:44:25;;;;;;;;;;;;;;;16.13;75.36;98019.91;7391403;19;20652;-76
2022/11/09 12:47:14;;;;;;;;;;;;;;;16.08;75.58;98017.81;7392680;19;19926;-76
2022/11/09 12:50:03;;;;;;;;;;;;;;;16.09;75.57;98018.66;7393639;19;19929;-77
2022/11/09 12:52:50;;;;;;;;;;;;;;;15.97;75.52;98019.22;7387344;19;20348;-75
2022/11/09 12:55:41;;;;;;;;;;;;;;;16.00;75.96;98023.34;7394880;19;19921;-76
2022/11/09 12:58:28;;;;;;;;;;;;;;;16.11;75.92;98012.09;7394292;19;19992;-77
2022/11/09 13:01:35;;;;;;;;;;;;;;;16.24;75.78;98016.66;7393636;19;19914;-76
2022/11/09 13:04:24;;;;;;;;;;;;;;;16.39;75.65;98032.50;7391449;19;19917;-75
2022/11/09 13:07:18;;;;;;;;;;;;;;;16.38;75.21;98031.69;7389814;19;19926;-75
2022/11/09 13:10:04;;;;;;;;;;;;;;;16.39;75.52;98033.34;7383348;19;19949;-76
2022/11/09 13:12:50;;;;;;;;;;;;;;;16.52;75.46;98032.53;7377082;19;19999;-76